createdAt,value
2023-01-02T00:02:02.792Z,3.70
2023-01-02T00:04:29.374Z,6.43
2023-01-02T00:06:55.920Z,6.28
2023-01-02T00:09:22.494Z,4.60
2023-01-02T00:11:49.071Z,6.78
2023-01-02T00:14:15.710Z,4.20
2023-01-02T00:16:42.263Z,5.45
2023-01-02T00:19:08.858Z,4.07
2023-01-02T00:21:35.590Z,4.85
2023-01-02T00:24:02.333Z,6.63
2023-01-02T00:26:30.233Z,4.72
2023-01-02T00:28:56.998Z,5.75
2023-01-02T00:31:23.631Z,6.25
2023-01-02T00:33:50.296Z,4.20
2023-01-02T00:36:16.868Z,4.13
2023-01-02T00:38:43.502Z,4.57
2023-01-02T00:41:10.183Z,5.57
2023-01-02T00:43:37.455Z,4.75
2023-01-02T00:46:10.894Z,4.60
2023-01-02T00:48:38.056Z,5.38
2023-01-02T00:51:04.759Z,6.30
2023-01-02T00:53:31.386Z,4.00
2023-01-02T00:55:57.949Z,4.50
2023-01-02T00:58:24.500Z,4.28
2023-01-02T01:00:51.629Z,6.63
2023-01-02T01:03:18.469Z,5.13
2023-01-02T01:05:45.087Z,5.85
2023-01-02T01:08:11.657Z,3.88
2023-01-02T01:10:38.285Z,4.15
2023-01-02T01:13:05.725Z,4.60
2023-01-02T01:15:35.713Z,4.50
2023-01-02T01:18:02.279Z,4.88
2023-01-02T01:20:29.265Z,4.88
2023-01-02T01:22:55.888Z,3.78
2023-01-02T01:25:22.508Z,3.90
2023-01-02T01:27:52.050Z,4.95
2023-01-02T01:30:18.622Z,4.88
2023-01-02T01:32:45.190Z,4.38
2023-01-02T01:35:11.786Z,5.07
2023-01-02T01:37:39.911Z,4.20
2023-01-02T01:40:07.218Z,4.13
2023-01-02T01:42:34.342Z,4.20
2023-01-02T01:45:01.216Z,4.05
2023-01-02T01:47:38.679Z,4.32
2023-01-02T01:50:25.171Z,3.95
2023-01-02T01:53:02.562Z,4.63
2023-01-02T01:55:33.375Z,6.53
2023-01-02T01:58:05.555Z,4.28
2023-01-02T02:00:32.661Z,4.50
2023-01-02T02:03:08.523Z,4.32
2023-01-02T02:05:36.307Z,4.60
2023-01-02T02:08:28.151Z,4.35
2023-01-02T02:10:58.123Z,6.00
2023-01-02T02:13:24.924Z,6.28
2023-01-02T02:16:06.585Z,4.45
2023-01-02T02:18:45.339Z,3.78
2023-01-02T02:21:42.156Z,5.18
2023-01-02T02:24:35.717Z,4.95
2023-01-02T02:27:31.678Z,3.83
2023-01-02T02:30:48.767Z,4.55
2023-01-02T02:33:36.498Z,3.92
2023-01-02T02:36:16.791Z,3.33
2023-01-02T02:39:14.450Z,5.60
2023-01-02T02:42:06.189Z,4.63
2023-01-02T02:44:49.929Z,4.65
2023-01-02T02:47:29.703Z,3.80
2023-01-02T02:50:10.385Z,4.05
2023-01-02T02:52:57.028Z,4.30
2023-01-02T02:55:29.088Z,3.83
2023-01-02T02:57:58.381Z,3.95
2023-01-02T03:00:24.982Z,4.05
2023-01-02T03:02:51.628Z,4.85
2023-01-02T03:05:34.995Z,3.75
2023-01-02T03:08:19.356Z,4.68
2023-01-02T03:10:51.963Z,5.47
2023-01-02T03:13:43.036Z,4.78
2023-01-02T03:16:12.367Z,4.85
2023-01-02T03:18:58.738Z,4.25
2023-01-02T03:21:34.956Z,3.88
2023-01-02T03:24:09.967Z,5.65
2023-01-02T03:26:39.684Z,4.32
2023-01-02T03:29:24.203Z,5.57
2023-01-02T03:31:54.094Z,5.93
2023-01-02T03:34:25.990Z,4.10
2023-01-02T03:36:58.556Z,6.47
2023-01-02T03:39:29.823Z,3.85
2023-01-02T03:42:01.282Z,3.78
2023-01-02T03:44:38.584Z,5.83
2023-01-02T03:47:33.351Z,4.32
2023-01-02T03:50:06.513Z,4.78
2023-01-02T03:52:33.113Z,4.43
2023-01-02T03:55:01.214Z,4.15
2023-01-02T03:57:39.174Z,4.70
2023-01-02T04:00:09.354Z,5.38
2023-01-02T04:03:03.273Z,5.00
2023-01-02T04:05:40.613Z,5.28
2023-01-02T04:08:56.751Z,4.25
2023-01-02T04:11:25.888Z,4.47
2023-01-02T04:13:58.153Z,4.05
2023-01-02T04:16:29.172Z,5.45
2023-01-02T04:19:02.664Z,5.75
2023-01-02T04:21:33.749Z,5.00
2023-01-02T04:24:17.063Z,4.47
2023-01-02T04:27:13.522Z,3.75
2023-01-02T04:29:40.888Z,4.43
2023-01-02T04:32:43.632Z,5.45
2023-01-02T04:35:20.148Z,4.93
2023-01-02T04:37:47.444Z,4.50
2023-01-02T04:40:27.103Z,4.85
2023-01-02T04:42:53.847Z,4.07
2023-01-02T04:45:20.583Z,4.45
2023-01-02T04:47:50.994Z,4.78
2023-01-02T04:50:17.612Z,3.70
2023-01-02T04:52:44.193Z,4.45
2023-01-02T04:55:10.906Z,4.18
2023-01-02T04:57:38.250Z,4.05
2023-01-02T05:00:07.060Z,3.75
2023-01-02T05:02:37.742Z,5.05
2023-01-02T05:05:05.586Z,5.45
2023-01-02T05:07:33.852Z,4.05
2023-01-02T05:10:00.504Z,4.25
2023-01-02T05:12:27.070Z,5.05
2023-01-02T05:14:53.713Z,3.33
2023-01-02T05:17:20.297Z,4.70
2023-01-02T05:19:46.890Z,4.30
2023-01-02T05:22:32.324Z,5.50
2023-01-02T05:24:58.967Z,5.10
2023-01-02T05:27:25.637Z,5.93
2023-01-02T05:29:52.212Z,5.47
2023-01-02T05:32:18.825Z,3.97
2023-01-02T05:34:45.423Z,4.63
2023-01-02T05:37:11.975Z,4.20
2023-01-02T05:39:38.546Z,5.03
2023-01-02T05:42:05.344Z,4.60
2023-01-02T05:44:31.920Z,4.45
2023-01-02T05:46:58.563Z,4.70
2023-01-02T05:49:25.199Z,4.25
2023-01-02T05:51:51.761Z,4.28
2023-01-02T05:54:18.383Z,5.13
2023-01-02T05:56:44.945Z,4.60
2023-01-02T05:59:14.553Z,5.40
2023-01-02T06:01:41.289Z,6.15
2023-01-02T06:04:08.175Z,3.75
2023-01-02T06:06:37.378Z,5.15
2023-01-02T06:09:05.675Z,4.60
2023-01-02T06:11:33.152Z,4.07
2023-01-02T06:14:00.356Z,4.68
2023-01-02T06:16:27.408Z,3.90
2023-01-02T06:18:54.995Z,3.63
2023-01-02T06:21:22.303Z,3.70
2023-01-02T06:23:53.752Z,4.32
2023-01-02T06:26:21.287Z,4.90
2023-01-02T06:28:53.791Z,6.05
2023-01-02T06:31:21.825Z,4.65
2023-01-02T06:33:52.881Z,3.70
2023-01-02T06:36:19.526Z,3.38
2023-01-02T06:38:46.766Z,5.43
2023-01-02T06:41:14.478Z,3.55
2023-01-02T06:43:43.525Z,4.95
2023-01-02T06:46:11.528Z,4.93
2023-01-02T06:48:39.029Z,5.68
2023-01-02T06:51:07.331Z,4.18
2023-01-02T06:53:38.328Z,4.25
2023-01-02T06:56:06.098Z,4.43
2023-01-02T06:58:34.476Z,5.90
2023-01-02T07:01:07.192Z,4.20
2023-01-02T07:03:34.227Z,4.15
2023-01-02T07:06:10.049Z,3.85
2023-01-02T07:08:37.508Z,5.43
2023-01-02T07:11:17.097Z,4.97
2023-01-02T07:13:45.539Z,4.95
2023-01-02T07:16:14.792Z,5.75
2023-01-02T07:18:41.792Z,3.03
2023-01-02T07:21:10.064Z,3.42
2023-01-02T07:23:37.138Z,3.78
2023-01-02T07:26:05.639Z,4.07
2023-01-02T07:28:33.689Z,3.72
2023-01-02T07:31:02.367Z,6.13
2023-01-02T07:33:30.275Z,4.75
2023-01-02T07:36:01.773Z,3.17
2023-01-02T07:38:28.937Z,4.60
2023-01-02T07:40:55.544Z,5.30
2023-01-02T07:43:22.636Z,3.65
2023-01-02T07:45:50.589Z,4.28
2023-01-02T07:48:18.178Z,3.58
2023-01-02T07:50:45.686Z,3.22
2023-01-02T07:53:12.776Z,3.67
2023-01-02T07:55:39.501Z,2.47
2023-01-02T07:58:06.091Z,3.55
2023-01-02T08:00:32.718Z,3.20
2023-01-02T08:03:00.254Z,4.47
2023-01-02T08:05:26.912Z,4.35
2023-01-02T08:07:53.477Z,3.45
2023-01-02T08:10:20.071Z,4.38
2023-01-02T08:12:46.637Z,3.40
2023-01-02T08:15:13.438Z,4.03
2023-01-02T08:17:41.235Z,3.40
2023-01-02T08:20:08.964Z,4.00
2023-01-02T08:22:35.774Z,3.42
2023-01-02T08:25:02.617Z,4.05
2023-01-02T08:27:29.264Z,4.95
2023-01-02T08:32:46.512Z,3.55
2023-01-02T08:35:13.101Z,3.38
2023-01-02T08:37:39.838Z,5.13
2023-01-02T08:40:06.835Z,3.28
2023-01-02T08:42:33.552Z,4.28
2023-01-02T08:45:00.183Z,3.72
2023-01-02T08:47:26.786Z,3.67
2023-01-02T08:49:53.675Z,3.83
2023-01-02T08:52:20.259Z,4.13
2023-01-02T08:54:46.840Z,3.70
2023-01-02T08:57:13.510Z,3.53
2023-01-02T08:59:40.194Z,3.72
2023-01-02T09:02:07.016Z,3.30
2023-01-02T09:04:33.670Z,2.97
2023-01-02T09:07:00.236Z,2.90
2023-01-02T09:09:26.936Z,4.35
2023-01-02T09:11:53.582Z,5.57
2023-01-02T09:14:21.798Z,4.03
2023-01-02T09:16:49.763Z,3.28
2023-01-02T09:19:16.800Z,4.75
2023-01-02T09:21:43.504Z,4.53
2023-01-02T09:24:10.440Z,3.15
2023-01-02T09:26:42.612Z,3.20
2023-01-02T09:29:10.473Z,4.30
2023-01-02T09:31:37.667Z,3.40
2023-01-02T09:34:04.447Z,3.38
2023-01-02T09:36:32.248Z,3.83
2023-01-02T09:39:01.257Z,3.25
2023-01-02T09:41:31.580Z,2.40
2023-01-02T09:44:01.239Z,3.85
2023-01-02T09:46:40.548Z,3.15
2023-01-02T09:49:10.495Z,2.83
2023-01-02T09:51:37.698Z,3.67
2023-01-02T09:54:06.311Z,3.13
2023-01-02T09:56:41.409Z,2.45
2023-01-02T09:59:29.006Z,4.53
2023-01-02T10:02:20.030Z,3.03
2023-01-02T10:05:15.738Z,3.40
2023-01-02T10:08:06.293Z,2.28
2023-01-02T10:10:37.674Z,2.65
2023-01-02T10:14:08.404Z,3.50
2023-01-02T10:18:51.307Z,3.90
2023-01-02T10:21:25.834Z,3.45
2023-01-02T10:23:56.638Z,4.75
2023-01-02T10:26:31.043Z,3.53
2023-01-02T10:29:09.970Z,3.90
2023-01-02T10:31:40.696Z,3.72
2023-01-02T10:34:22.254Z,3.33
2023-01-02T10:36:50.068Z,2.72
2023-01-02T10:39:22.454Z,4.32
2023-01-02T10:44:22.283Z,2.95
2023-01-02T10:46:48.875Z,4.07
2023-01-02T10:49:15.978Z,3.95
2023-01-02T10:51:55.376Z,3.20
2023-01-02T10:54:22.035Z,3.58
2023-01-02T10:56:50.938Z,3.85
2023-01-02T10:59:29.118Z,3.58
2023-01-02T11:01:58.456Z,2.33
2023-01-02T11:04:30.064Z,3.95
2023-01-02T11:06:59.547Z,4.15
2023-01-02T11:09:29.088Z,2.25
2023-01-02T11:12:07.764Z,2.20
2023-01-02T11:14:36.294Z,2.80
2023-01-02T11:17:16.121Z,3.15
2023-01-02T11:19:45.305Z,2.38
2023-01-02T11:22:15.059Z,4.22
2023-01-02T11:24:59.524Z,2.72
2023-01-02T11:27:35.520Z,3.53
2023-01-02T11:30:03.960Z,3.67
2023-01-02T11:32:40.950Z,3.65
2023-01-02T11:35:38.253Z,3.13
2023-01-02T11:38:12.030Z,3.28
2023-01-02T11:40:50.816Z,3.47
2023-01-02T11:43:38.465Z,5.35
2023-01-02T11:46:09.416Z,2.78
2023-01-02T11:48:36.933Z,2.70
2023-01-02T11:51:03.655Z,2.97
2023-01-02T11:53:41.149Z,2.00
2023-01-02T11:56:32.267Z,1.52
2023-01-02T11:59:20.487Z,1.80
2023-01-02T12:02:02.190Z,1.80
2023-01-02T12:04:29.350Z,1.58
2023-01-02T12:07:32.487Z,1.45
2023-01-02T12:10:04.895Z,1.80
2023-01-02T12:15:50.141Z,2.33
2023-01-02T12:18:32.831Z,1.52
2023-01-02T12:21:19.652Z,5.20
2023-01-02T12:23:57.107Z,1.52
2023-01-02T12:26:42.060Z,1.70
2023-01-02T12:29:47.657Z,1.20
2023-01-02T12:32:53.480Z,1.27
2023-01-02T12:35:47.575Z,0.73
2023-01-02T12:38:43.993Z,0.90
2023-01-02T12:41:20.411Z,0.77
2023-01-02T12:44:02.719Z,0.80
2023-01-02T12:47:00.524Z,1.30
2023-01-02T12:49:28.050Z,0.95
2023-01-02T12:52:09.682Z,0.90
2023-01-02T12:54:49.548Z,0.70
2023-01-02T12:57:30.221Z,1.42
2023-01-02T13:00:14.901Z,0.80
2023-01-02T13:03:07.075Z,1.85
2023-01-02T13:05:48.764Z,1.60
2023-01-02T13:08:24.937Z,0.73
2023-01-02T13:10:51.995Z,1.02
2023-01-02T13:13:20.827Z,1.45
2023-01-02T13:15:50.298Z,1.83
2023-01-02T13:18:30.212Z,2.38
2023-01-02T13:21:12.633Z,3.35
2023-01-02T13:23:43.235Z,1.75
2023-01-02T13:26:19.058Z,3.90
2023-01-02T13:29:03.768Z,2.08
2023-01-02T13:31:46.342Z,2.33
2023-01-02T13:34:26.364Z,1.80
2023-01-02T13:37:07.468Z,2.80
2023-01-02T13:39:39.899Z,2.72
2023-01-02T13:42:28.011Z,1.95
2023-01-02T13:44:59.046Z,1.95
2023-01-02T13:47:36.393Z,1.65
2023-01-02T13:50:03.007Z,1.88
2023-01-02T13:52:29.659Z,1.70
2023-01-02T13:55:31.192Z,2.28
2023-01-02T13:58:13.276Z,2.03
2023-01-02T14:00:51.639Z,2.17
2023-01-02T14:03:24.083Z,3.15
2023-01-02T14:05:58.885Z,2.22
2023-01-02T14:08:38.308Z,2.35
2023-01-02T14:11:30.306Z,2.33
2023-01-02T14:14:46.728Z,2.47
2023-01-02T14:17:32.143Z,1.83
2023-01-02T14:20:16.980Z,2.28
2023-01-02T14:22:53.367Z,3.20
2023-01-02T14:25:21.570Z,3.05
2023-01-02T14:27:55.971Z,3.22
2023-01-02T14:30:39.420Z,2.40
2023-01-02T14:33:09.178Z,3.63
2023-01-02T14:35:48.793Z,3.60
2023-01-02T14:38:15.325Z,3.30
2023-01-02T14:40:43.353Z,2.75
2023-01-02T14:43:32.144Z,3.03
2023-01-02T14:46:03.749Z,4.57
2023-01-02T14:48:35.903Z,4.20
2023-01-02T14:51:09.343Z,3.60
2023-01-02T14:53:43.828Z,3.30
2023-01-02T14:56:19.284Z,3.60
2023-01-02T14:58:48.212Z,4.30
2023-01-02T15:01:44.106Z,12.55
2023-01-02T15:04:22.961Z,17.75
2023-01-02T15:07:04.654Z,5.70
2023-01-02T15:09:40.372Z,3.72
2023-01-02T15:12:47.447Z,4.30
2023-01-02T15:15:20.301Z,4.30
2023-01-02T15:17:48.937Z,5.68
2023-01-02T15:20:22.523Z,3.85
2023-01-02T15:22:52.346Z,4.70
2023-01-02T15:25:32.648Z,4.30
2023-01-02T15:27:59.303Z,5.28
2023-01-02T15:30:34.385Z,5.32
2023-01-02T15:33:00.971Z,6.30
2023-01-02T15:35:32.498Z,5.90
2023-01-02T15:37:59.130Z,6.35
2023-01-02T15:40:34.327Z,4.35
2023-01-02T15:43:23.003Z,4.10
2023-01-02T15:45:51.725Z,4.43
2023-01-02T15:48:23.531Z,4.20
2023-01-02T15:50:53.012Z,4.35
2023-01-02T15:53:32.278Z,4.72
2023-01-02T15:55:59.000Z,6.70
2023-01-02T15:58:30.402Z,5.45
2023-01-02T16:01:20.620Z,7.23
2023-01-02T16:04:03.015Z,6.60
2023-01-02T16:06:38.973Z,5.50
2023-01-02T16:09:08.067Z,4.78
2023-01-02T16:11:44.671Z,5.60
2023-01-02T16:14:20.238Z,4.55
2023-01-02T16:16:53.078Z,5.28
2023-01-02T16:19:37.383Z,6.05
2023-01-02T16:22:27.105Z,7.70
2023-01-02T16:25:18.161Z,6.63
2023-01-02T16:27:56.135Z,6.95
2023-01-02T16:30:25.725Z,8.70
2023-01-02T16:32:52.556Z,9.05
2023-01-02T16:35:25.674Z,8.55
2023-01-02T16:38:25.397Z,6.95
2023-01-02T16:41:02.985Z,8.82
2023-01-02T16:43:30.911Z,6.93
2023-01-02T16:45:58.925Z,6.85
2023-01-02T16:48:28.261Z,8.05
2023-01-02T16:50:56.911Z,9.13
2023-01-02T16:53:30.470Z,6.45
2023-01-02T16:55:58.551Z,8.88
2023-01-02T16:58:25.417Z,7.80
2023-01-02T17:00:53.313Z,9.13
2023-01-02T17:03:22.485Z,7.78
2023-01-02T17:06:01.744Z,6.95
2023-01-02T17:08:31.513Z,7.13
2023-01-02T17:10:58.814Z,6.95
2023-01-02T17:13:26.557Z,6.78
2023-01-02T17:15:53.159Z,6.03
2023-01-02T17:18:20.011Z,6.68
2023-01-02T17:20:46.607Z,6.45
2023-01-02T17:23:13.628Z,5.07
2023-01-02T17:25:43.489Z,5.65
2023-01-02T17:28:10.184Z,5.68
2023-01-02T17:30:36.840Z,6.35
2023-01-02T17:33:04.337Z,6.18
2023-01-02T17:35:32.801Z,5.00
2023-01-02T17:37:59.362Z,7.38
2023-01-02T17:40:26.226Z,5.68
2023-01-02T17:42:53.605Z,5.53
2023-01-02T17:45:20.500Z,5.68
2023-01-02T17:50:33.756Z,5.55
2023-01-02T17:53:00.356Z,5.82
2023-01-02T17:55:26.936Z,6.95
2023-01-02T17:57:54.009Z,5.72
2023-01-02T18:00:23.286Z,5.40
2023-01-02T18:02:51.507Z,5.53
2023-01-02T18:05:18.353Z,5.53
2023-01-02T18:07:44.987Z,4.35
2023-01-02T18:10:16.016Z,4.95
2023-01-02T18:12:46.679Z,4.45
2023-01-02T18:15:15.175Z,6.57
2023-01-02T18:17:42.942Z,6.22
2023-01-02T18:20:16.006Z,5.85
2023-01-02T18:22:48.994Z,5.03
2023-01-02T18:25:27.332Z,5.22
2023-01-02T18:28:04.902Z,6.07
2023-01-02T18:30:31.460Z,5.63
2023-01-02T18:33:13.574Z,6.28
2023-01-02T18:35:57.155Z,7.22
2023-01-02T18:38:34.403Z,8.30
2023-01-02T18:41:11.537Z,8.00
2023-01-02T18:43:39.248Z,7.15
2023-01-02T18:46:17.787Z,8.65
2023-01-02T18:48:44.843Z,7.25
2023-01-02T18:51:24.270Z,8.23
2023-01-02T18:53:56.851Z,8.52
2023-01-02T18:56:25.827Z,6.40
2023-01-02T18:59:22.054Z,8.45
2023-01-02T19:01:51.911Z,8.27
2023-01-02T19:04:28.443Z,8.23
2023-01-02T19:06:57.673Z,8.13
2023-01-02T19:09:33.609Z,8.38
2023-01-02T19:12:50.993Z,6.63
2023-01-02T19:15:40.597Z,9.65
2023-01-02T19:18:22.688Z,7.60
2023-01-02T19:21:17.846Z,10.65
2023-01-02T19:24:24.109Z,8.93
2023-01-02T19:26:55.565Z,7.72
2023-01-02T19:29:25.397Z,6.37
2023-01-02T19:32:13.723Z,7.13
2023-01-02T19:34:47.621Z,10.23
2023-01-02T19:37:23.746Z,7.80
2023-01-02T19:39:55.628Z,7.93
2023-01-02T19:42:24.521Z,9.10
2023-01-02T19:45:08.916Z,10.82
2023-01-02T19:47:37.684Z,9.43
2023-01-02T19:50:08.072Z,8.10
2023-01-02T19:52:34.950Z,9.88
2023-01-02T19:55:02.383Z,10.07
2023-01-02T19:57:29.044Z,10.57
2023-01-02T19:59:56.029Z,9.82
2023-01-02T20:02:23.762Z,8.95
2023-01-02T20:04:52.164Z,9.85
2023-01-02T20:07:19.118Z,11.02
2023-01-02T20:09:46.466Z,10.30
2023-01-02T20:12:32.124Z,10.75
2023-01-02T20:15:10.962Z,9.90
2023-01-02T20:17:39.383Z,11.43
2023-01-02T20:20:10.441Z,12.07
2023-01-02T20:22:37.244Z,12.95
2023-01-02T20:25:04.417Z,11.82
2023-01-02T20:27:31.287Z,8.18
2023-01-02T20:29:57.868Z,8.00
2023-01-02T20:32:24.956Z,10.32
2023-01-02T20:34:52.330Z,8.82
2023-01-02T20:37:20.966Z,8.68
2023-01-02T20:39:53.065Z,9.75
2023-01-02T20:42:21.016Z,9.20
2023-01-02T20:44:48.114Z,8.30
2023-01-02T20:47:15.072Z,13.75
2023-01-02T20:49:41.719Z,8.10
2023-01-02T20:52:08.578Z,8.27
2023-01-02T20:54:35.529Z,7.22
2023-01-02T20:57:02.319Z,5.53
2023-01-02T20:59:28.988Z,6.28
2023-01-02T21:01:55.812Z,5.22
2023-01-02T21:04:24.920Z,6.30
2023-01-02T21:06:57.385Z,4.78
2023-01-02T21:09:23.982Z,5.80
2023-01-02T21:11:50.575Z,5.22
2023-01-02T21:14:17.282Z,5.57
2023-01-02T21:16:43.895Z,4.93
2023-01-02T21:19:10.603Z,5.65
2023-01-02T21:21:37.251Z,5.75
2023-01-02T21:24:04.059Z,3.38
2023-01-02T21:26:30.746Z,4.05
2023-01-02T21:28:57.341Z,4.30
2023-01-02T21:31:24.051Z,4.65
2023-01-02T21:33:50.721Z,4.28
2023-01-02T21:36:17.410Z,5.65
2023-01-02T21:38:44.548Z,5.50
2023-01-02T21:41:30.233Z,5.47
2023-01-02T21:43:56.961Z,4.47
2023-01-02T21:46:23.612Z,3.90
2023-01-02T21:48:50.535Z,5.80
2023-01-02T21:51:17.261Z,7.55
2023-01-02T21:53:47.049Z,9.85
2023-01-02T21:56:13.955Z,5.97
2023-01-02T21:58:40.869Z,4.93
2023-01-02T22:01:07.531Z,7.63
2023-01-02T22:03:35.453Z,7.20
2023-01-02T22:06:02.175Z,5.20
2023-01-02T22:08:28.846Z,17.02
2023-01-02T22:11:15.398Z,7.57
2023-01-02T22:13:42.022Z,4.90
2023-01-02T22:16:08.639Z,6.32
2023-01-02T22:18:38.280Z,6.38
2023-01-02T22:21:05.276Z,4.90
2023-01-02T22:23:31.919Z,5.38
2023-01-02T22:25:58.670Z,6.47
2023-01-02T22:28:25.391Z,5.72
2023-01-02T22:30:52.925Z,5.63
2023-01-02T22:33:19.655Z,5.78
2023-01-02T22:35:46.352Z,5.63
2023-01-02T22:38:13.099Z,4.72
2023-01-02T22:40:39.815Z,4.85
2023-01-02T22:43:08.352Z,7.10
2023-01-02T22:45:44.857Z,5.90
2023-01-02T22:48:27.032Z,5.88
2023-01-02T22:50:56.949Z,7.50
2023-01-02T22:53:29.882Z,7.07
2023-01-02T22:55:56.740Z,5.05
2023-01-02T22:58:24.635Z,6.20
2023-01-02T23:00:59.041Z,5.82
2023-01-02T23:03:29.347Z,7.95
2023-01-02T23:05:56.495Z,7.65
2023-01-02T23:08:23.113Z,6.90
2023-01-02T23:10:49.739Z,6.85
2023-01-02T23:13:16.411Z,7.63
2023-01-02T23:16:03.090Z,9.10
2023-01-02T23:18:56.008Z,7.25
2023-01-02T23:21:25.555Z,6.68
2023-01-02T23:23:53.669Z,9.60
2023-01-02T23:26:22.571Z,6.50
2023-01-02T23:29:06.624Z,6.70
2023-01-02T23:31:43.147Z,7.47
2023-01-02T23:34:12.041Z,8.88
2023-01-02T23:36:39.219Z,8.05
2023-01-02T23:39:07.426Z,8.48
2023-01-02T23:41:35.015Z,7.60
2023-01-02T23:44:01.845Z,6.97
2023-01-02T23:46:28.466Z,9.60
2023-01-02T23:48:55.067Z,8.00
2023-01-02T23:51:21.652Z,9.80
2023-01-02T23:53:48.236Z,8.30
2023-01-02T23:56:21.888Z,8.10
2023-01-02T23:58:50.240Z,11.07
